»·PEaware :: SWA3041 KSNA-KLAS

SWA3041 :: KSNA-KLAS

FLIGHT INFORMATION

Flight Status: Arrived
Operator:
Southwest Airlines
More flights by this operator :: More flights under this callsign
Pilot: Cody B. (17747)
Aircraft: BOEING 737-800
(B738)
More flights by this aircraft type
Origin: KSNA John Wayne-Orange Co
United States
Destination: KLAS McCarran Intl
United States
More flights between these airports :: More routes between these airports
Route: +FINZZ2 MISEN KEPEC6
File this flight plan on PilotEdge
Remarks:
Altitude:
(Current/Filed)
29,000ft
Speed:
(Current/Filed)
450kts
Departed: 15-Apr-18 07:32 PM
Arrived: 15-Apr-18 08:17 PM
Distance/Time
Traveled:
197nm/0:45
Distance/Time
To Go:
Arrived

Flight Plot

Page will automatically refresh every two minutes.

Flight plan parsing failed; only flown route is shown


Map Options




Map Legend


Flown Route
Filed Route
Departure Airport
Arrival Airport
Navaid (VOR, NDB)
Fix

Horizontal Profiles

Position Reports

Time Latitude Longitude Heading Altitude Ground
Speed
15-Apr-18 19:02 33.675729 -117.864666 117 47ft 0kts
15-Apr-18 19:03 33.675729 -117.864666 117 47ft 0kts
15-Apr-18 19:04 33.675729 -117.864666 117 47ft 0kts
15-Apr-18 19:05 33.675729 -117.864666 117 47ft 0kts
15-Apr-18 19:06 33.675729 -117.864666 117 47ft 0kts
15-Apr-18 19:07 33.675729 -117.864666 117 47ft 0kts
15-Apr-18 19:08 33.675729 -117.864666 117 47ft 0kts
15-Apr-18 19:09 33.675729 -117.864666 117 47ft 0kts
15-Apr-18 19:10 33.675729 -117.864666 117 47ft 0kts
15-Apr-18 19:11 33.675729 -117.864666 117 47ft 0kts
15-Apr-18 19:12 33.675729 -117.864666 117 47ft 0kts
15-Apr-18 19:13 33.675729 -117.864666 117 47ft 0kts
15-Apr-18 19:14 33.675729 -117.864666 117 47ft 0kts
15-Apr-18 19:15 33.675729 -117.864666 117 47ft 0kts
15-Apr-18 19:16 33.675729 -117.864666 117 47ft 0kts
15-Apr-18 19:17 33.675729 -117.864666 117 47ft 0kts
15-Apr-18 19:18 33.675729 -117.864666 117 47ft 0kts
15-Apr-18 19:19 33.675729 -117.864666 117 47ft 0kts
15-Apr-18 19:20 33.675820 -117.864877 117 47ft 2kts
15-Apr-18 19:21 33.675846 -117.865398 30 48ft 0kts
15-Apr-18 19:22 33.675813 -117.865417 27 48ft 0kts
15-Apr-18 19:23 33.675813 -117.865417 27 48ft 0kts
15-Apr-18 19:24 33.675813 -117.865417 27 48ft 0kts
15-Apr-18 19:25 33.675993 -117.865303 27 48ft 2kts
15-Apr-18 19:26 33.677913 -117.864071 27 44ft 10kts
15-Apr-18 19:27 33.680304 -117.862684 350 42ft 6kts
15-Apr-18 19:28 33.680647 -117.863084 298 43ft 0kts
15-Apr-18 19:29 33.680716 -117.863237 297 44ft 3kts
15-Apr-18 19:30 33.681355 -117.865183 224 44ft 4kts
15-Apr-18 19:31 33.661599 -117.877727 208 541ft 176kts
15-Apr-18 19:32 33.617586 -117.895388 192 4416ft 163kts
15-Apr-18 19:33 33.563423 -117.910872 221 5966ft 253kts
15-Apr-18 19:34 33.510460 -117.969314 224 7996ft 265kts
15-Apr-18 19:35 33.517880 -118.045699 307 8002ft 271kts
15-Apr-18 19:36 33.573282 -118.110715 331 10860ft 311kts
15-Apr-18 19:37 33.662086 -118.092775 24 14018ft 361kts
15-Apr-18 19:38 33.753311 -118.036698 22 17166ft 384kts
15-Apr-18 19:39 33.849821 -117.979485 21 20092ft 400kts
15-Apr-18 19:40 33.948117 -117.912099 35 22585ft 423kts
15-Apr-18 19:41 34.041028 -117.824090 34 23034ft 427kts
15-Apr-18 19:42 34.127424 -117.730162 52 23585ft 436kts
15-Apr-18 19:43 34.202696 -117.612791 49 25602ft 451kts
15-Apr-18 19:44 34.274084 -117.505353 49 27179ft 467kts
15-Apr-18 19:45 34.353078 -117.386499 49 28788ft 481kts
15-Apr-18 19:46 34.438193 -117.258636 50 28981ft 507kts
15-Apr-18 19:47 34.528569 -117.122576 50 28983ft 527kts
15-Apr-18 19:48 34.620956 -116.986895 49 28928ft 528kts
15-Apr-18 19:49 34.713791 -116.849422 49 28931ft 528kts
15-Apr-18 19:50 34.807482 -116.711424 49 28931ft 528kts
15-Apr-18 19:51 34.908496 -116.584798 32 28948ft 522kts
15-Apr-18 19:52 35.018062 -116.483146 35 27282ft 476kts
15-Apr-18 19:53 35.117043 -116.384382 43 24502ft 465kts
15-Apr-18 19:54 35.204725 -116.275007 44 23002ft 457kts
15-Apr-18 19:55 35.290100 -116.167823 43 20374ft 432kts
15-Apr-18 19:56 35.371096 -116.065711 43 18764ft 412kts
15-Apr-18 19:57 35.449856 -115.966048 43 17249ft 403kts
15-Apr-18 19:58 35.526618 -115.868720 43 15909ft 393kts
15-Apr-18 19:59 35.600623 -115.774642 43 14463ft 381kts
15-Apr-18 20:00 35.671808 -115.683795 44 13081ft 351kts
15-Apr-18 20:01 35.737267 -115.600263 42 13039ft 338kts
15-Apr-18 20:02 35.823136 -115.569902 356 13021ft 326kts
15-Apr-18 20:03 35.913275 -115.565328 356 13023ft 326kts
15-Apr-18 20:04 35.988422 -115.512483 66 12800ft 344kts
15-Apr-18 20:05 36.020912 -115.411590 70 11377ft 307kts
15-Apr-18 20:06 36.029803 -115.312528 102 10268ft 292kts
15-Apr-18 20:07 36.021093 -115.213352 100 9144ft 287kts
15-Apr-18 20:08 36.016816 -115.118892 96 8090ft 258kts
15-Apr-18 20:09 36.015255 -115.034029 96 6865ft 233kts
15-Apr-18 20:10 36.014198 -114.956979 95 5659ft 219kts
15-Apr-18 20:11 36.061144 -114.927271 339 4997ft 212kts
15-Apr-18 20:12 36.087680 -114.973059 246 4612ft 191kts
15-Apr-18 20:13 36.075116 -115.039764 260 3572ft 182kts
15-Apr-18 20:14 36.073835 -115.095687 265 2496ft 140kts
15-Apr-18 20:15 36.073634 -115.140041 267 2080ft 46kts
15-Apr-18 20:16 36.073615 -115.140938 267 2083ft 0kts

Navigation Log

Ident Type
Flight plan parsing failed, navigation log unavailable